sensor_id;sensor_type;location;lat;lon;timestamp;P1;durP1;ratioP1;P2;durP2;ratioP2
20458;SDS011;10388;52.314;7.938;2024-01-10T00:00:40;5.33;;;3.70;;
20458;SDS011;10388;52.314;7.938;2024-01-10T00:03:10;5.80;;;3.63;;
20458;SDS011;10388;52.314;7.938;2024-01-10T00:05:41;4.43;;;3.30;;
20458;SDS011;10388;52.314;7.938;2024-01-10T00:08:11;6.10;;;3.13;;
20458;SDS011;10388;52.314;7.938;2024-01-10T00:10:42;5.77;;;3.23;;
20458;SDS011;10388;52.314;7.938;2024-01-10T00:13:12;5.67;;;3.30;;
20458;SDS011;10388;52.314;7.938;2024-01-10T00:15:43;3.47;;;3.07;;
20458;SDS011;10388;52.314;7.938;2024-01-10T00:18:13;7.07;;;3.60;;
20458;SDS011;10388;52.314;7.938;2024-01-10T00:20:44;5.30;;;3.33;;
20458;SDS011;10388;52.314;7.938;2024-01-10T00:23:14;5.57;;;3.50;;
20458;SDS011;10388;52.314;7.938;2024-01-10T00:25:45;4.07;;;3.00;;
20458;SDS011;10388;52.314;7.938;2024-01-10T00:28:16;6.00;;;3.70;;
20458;SDS011;10388;52.314;7.938;2024-01-10T00:30:47;6.13;;;3.43;;
20458;SDS011;10388;52.314;7.938;2024-01-10T00:33:18;5.50;;;3.30;;
20458;SDS011;10388;52.314;7.938;2024-01-10T00:35:49;5.00;;;3.10;;
20458;SDS011;10388;52.314;7.938;2024-01-10T00:38:19;4.47;;;3.33;;
20458;SDS011;10388;52.314;7.938;2024-01-10T00:40:50;4.07;;;3.20;;
20458;SDS011;10388;52.314;7.938;2024-01-10T00:43:20;4.43;;;3.10;;
20458;SDS011;10388;52.314;7.938;2024-01-10T00:45:51;5.10;;;3.00;;
20458;SDS011;10388;52.314;7.938;2024-01-10T00:48:21;4.20;;;3.07;;
20458;SDS011;10388;52.314;7.938;2024-01-10T00:50:52;5.20;;;3.43;;
20458;SDS011;10388;52.314;7.938;2024-01-10T00:53:22;4.27;;;3.00;;
20458;SDS011;10388;52.314;7.938;2024-01-10T00:55:53;5.30;;;3.17;;
20458;SDS011;10388;52.314;7.938;2024-01-10T00:58:23;5.53;;;3.20;;
20458;SDS011;10388;52.314;7.938;2024-01-10T01:00:54;7.37;;;4.30;;
20458;SDS011;10388;52.314;7.938;2024-01-10T01:03:25;5.73;;;3.70;;
20458;SDS011;10388;52.314;7.938;2024-01-10T01:05:55;4.80;;;2.70;;
20458;SDS011;10388;52.314;7.938;2024-01-10T01:08:26;4.63;;;3.10;;
20458;SDS011;10388;52.314;7.938;2024-01-10T01:10:56;4.23;;;3.07;;
20458;SDS011;10388;52.314;7.938;2024-01-10T01:13:27;4.87;;;3.20;;
20458;SDS011;10388;52.314;7.938;2024-01-10T01:15:57;4.33;;;3.33;;
20458;SDS011;10388;52.314;7.938;2024-01-10T01:18:28;5.87;;;3.30;;
20458;SDS011;10388;52.314;7.938;2024-01-10T01:20:58;4.10;;;3.03;;
20458;SDS011;10388;52.314;7.938;2024-01-10T01:23:29;4.60;;;3.17;;
20458;SDS011;10388;52.314;7.938;2024-01-10T01:25:59;4.67;;;3.40;;
20458;SDS011;10388;52.314;7.938;2024-01-10T01:28:30;5.10;;;3.53;;
20458;SDS011;10388;52.314;7.938;2024-01-10T01:36:24;4.30;;;3.13;;
20458;SDS011;10388;52.314;7.938;2024-01-10T01:38:54;5.23;;;3.30;;
20458;SDS011;10388;52.314;7.938;2024-01-10T01:41:25;6.10;;;3.50;;
20458;SDS011;10388;52.314;7.938;2024-01-10T01:43:56;6.80;;;3.60;;
20458;SDS011;10388;52.314;7.938;2024-01-10T01:46:27;5.17;;;3.57;;
20458;SDS011;10388;52.314;7.938;2024-01-10T01:49:03;6.67;;;3.90;;
20458;SDS011;10388;52.314;7.938;2024-01-10T01:51:57;4.97;;;3.33;;
20458;SDS011;10388;52.314;7.938;2024-01-10T01:58:01;5.97;;;3.87;;
20458;SDS011;10388;52.314;7.938;2024-01-10T02:00:48;4.87;;;3.37;;
20458;SDS011;10388;52.314;7.938;2024-01-10T02:06:27;5.57;;;3.50;;
20458;SDS011;10388;52.314;7.938;2024-01-10T02:09:43;8.83;;;3.20;;
20458;SDS011;10388;52.314;7.938;2024-01-10T02:15:43;6.57;;;4.27;;
20458;SDS011;10388;52.314;7.938;2024-01-10T02:18:32;6.10;;;3.80;;
20458;SDS011;10388;52.314;7.938;2024-01-10T02:21:24;5.50;;;4.03;;
20458;SDS011;10388;52.314;7.938;2024-01-10T02:24:10;6.83;;;3.77;;
20458;SDS011;10388;52.314;7.938;2024-01-10T02:27:06;6.77;;;4.10;;
20458;SDS011;10388;52.314;7.938;2024-01-10T02:32:44;6.07;;;3.73;;
20458;SDS011;10388;52.314;7.938;2024-01-10T02:38:49;6.70;;;4.17;;
20458;SDS011;10388;52.314;7.938;2024-01-10T02:41:33;7.30;;;4.30;;
20458;SDS011;10388;52.314;7.938;2024-01-10T02:44:14;7.67;;;4.60;;
20458;SDS011;10388;52.314;7.938;2024-01-10T02:47:08;7.47;;;4.13;;
20458;SDS011;10388;52.314;7.938;2024-01-10T02:49:55;5.40;;;3.87;;
20458;SDS011;10388;52.314;7.938;2024-01-10T02:52:51;5.23;;;3.90;;
20458;SDS011;10388;52.314;7.938;2024-01-10T02:58:56;8.20;;;4.93;;
20458;SDS011;10388;52.314;7.938;2024-01-10T03:01:40;5.97;;;4.10;;
20458;SDS011;10388;52.314;7.938;2024-01-10T03:04:30;8.80;;;4.73;;
20458;SDS011;10388;52.314;7.938;2024-01-10T03:07:21;5.70;;;4.00;;
20458;SDS011;10388;52.314;7.938;2024-01-10T03:10:03;7.43;;;4.43;;
20458;SDS011;10388;52.314;7.938;2024-01-10T03:15:56;8.03;;;4.87;;
20458;SDS011;10388;52.314;7.938;2024-01-10T03:18:33;9.23;;;5.40;;
20458;SDS011;10388;52.314;7.938;2024-01-10T03:21:27;6.40;;;4.50;;
20458;SDS011;10388;52.314;7.938;2024-01-10T03:27:10;6.80;;;4.50;;
20458;SDS011;10388;52.314;7.938;2024-01-10T03:29:54;8.23;;;5.30;;
20458;SDS011;10388;52.314;7.938;2024-01-10T03:32:52;7.30;;;5.27;;
20458;SDS011;10388;52.314;7.938;2024-01-10T03:35:43;7.70;;;5.07;;
20458;SDS011;10388;52.314;7.938;2024-01-10T03:38:42;7.80;;;4.60;;
20458;SDS011;10388;52.314;7.938;2024-01-10T03:44:49;7.37;;;4.70;;
20458;SDS011;10388;52.314;7.938;2024-01-10T03:47:38;8.43;;;4.83;;
20458;SDS011;10388;52.314;7.938;2024-01-10T03:50:30;9.23;;;5.20;;
20458;SDS011;10388;52.314;7.938;2024-01-10T03:53:01;8.27;;;5.40;;
20458;SDS011;10388;52.314;7.938;2024-01-10T03:55:31;9.90;;;6.27;;
20458;SDS011;10388;52.314;7.938;2024-01-10T03:58:02;9.53;;;5.53;;
20458;SDS011;10388;52.314;7.938;2024-01-10T04:00:33;9.80;;;5.90;;
20458;SDS011;10388;52.314;7.938;2024-01-10T04:03:04;10.93;;;6.27;;
20458;SDS011;10388;52.314;7.938;2024-01-10T04:05:34;9.67;;;4.93;;
20458;SDS011;10388;52.314;7.938;2024-01-10T04:08:05;8.43;;;5.07;;
20458;SDS011;10388;52.314;7.938;2024-01-10T04:10:36;9.73;;;5.80;;
20458;SDS011;10388;52.314;7.938;2024-01-10T04:13:07;10.30;;;6.07;;
20458;SDS011;10388;52.314;7.938;2024-01-10T04:15:37;10.07;;;5.63;;
20458;SDS011;10388;52.314;7.938;2024-01-10T04:18:08;9.10;;;5.97;;
20458;SDS011;10388;52.314;7.938;2024-01-10T04:20:39;10.70;;;6.03;;
20458;SDS011;10388;52.314;7.938;2024-01-10T04:23:09;10.17;;;5.67;;
20458;SDS011;10388;52.314;7.938;2024-01-10T04:25:40;9.23;;;5.37;;
20458;SDS011;10388;52.314;7.938;2024-01-10T04:28:10;10.80;;;5.80;;
20458;SDS011;10388;52.314;7.938;2024-01-10T04:30:41;10.17;;;6.00;;
20458;SDS011;10388;52.314;7.938;2024-01-10T04:33:11;10.10;;;5.77;;
20458;SDS011;10388;52.314;7.938;2024-01-10T04:35:42;8.57;;;5.70;;
20458;SDS011;10388;52.314;7.938;2024-01-10T04:38:13;10.90;;;6.43;;
20458;SDS011;10388;52.314;7.938;2024-01-10T04:40:43;13.07;;;6.30;;
20458;SDS011;10388;52.314;7.938;2024-01-10T04:43:14;14.37;;;7.17;;
20458;SDS011;10388;52.314;7.938;2024-01-10T04:45:44;11.07;;;6.53;;
20458;SDS011;10388;52.314;7.938;2024-01-10T04:48:15;14.30;;;6.73;;
20458;SDS011;10388;52.314;7.938;2024-01-10T04:50:45;8.90;;;5.70;;
20458;SDS011;10388;52.314;7.938;2024-01-10T04:53:16;10.27;;;6.03;;
20458;SDS011;10388;52.314;7.938;2024-01-10T04:55:47;12.47;;;6.57;;
20458;SDS011;10388;52.314;7.938;2024-01-10T04:58:17;11.43;;;7.13;;
20458;SDS011;10388;52.314;7.938;2024-01-10T05:00:48;10.63;;;7.07;;
20458;SDS011;10388;52.314;7.938;2024-01-10T05:03:18;13.93;;;6.83;;
20458;SDS011;10388;52.314;7.938;2024-01-10T05:05:49;12.33;;;6.87;;
20458;SDS011;10388;52.314;7.938;2024-01-10T05:08:20;13.13;;;6.40;;
20458;SDS011;10388;52.314;7.938;2024-01-10T05:10:50;12.30;;;7.33;;
20458;SDS011;10388;52.314;7.938;2024-01-10T05:13:21;11.73;;;6.43;;
20458;SDS011;10388;52.314;7.938;2024-01-10T05:15:51;12.33;;;7.20;;
20458;SDS011;10388;52.314;7.938;2024-01-10T05:18:22;11.63;;;7.10;;
20458;SDS011;10388;52.314;7.938;2024-01-10T05:20:53;11.43;;;6.77;;
20458;SDS011;10388;52.314;7.938;2024-01-10T05:23:23;11.17;;;6.93;;
20458;SDS011;10388;52.314;7.938;2024-01-10T05:25:54;11.90;;;7.17;;
20458;SDS011;10388;52.314;7.938;2024-01-10T05:28:24;10.90;;;7.00;;
20458;SDS011;10388;52.314;7.938;2024-01-10T05:30:55;12.60;;;7.40;;
20458;SDS011;10388;52.314;7.938;2024-01-10T05:33:25;12.87;;;7.00;;
20458;SDS011;10388;52.314;7.938;2024-01-10T05:35:56;12.77;;;7.23;;
20458;SDS011;10388;52.314;7.938;2024-01-10T05:38:28;14.63;;;7.23;;
20458;SDS011;10388;52.314;7.938;2024-01-10T05:40:58;10.67;;;6.80;;
20458;SDS011;10388;52.314;7.938;2024-01-10T05:43:29;12.47;;;6.83;;
20458;SDS011;10388;52.314;7.938;2024-01-10T05:46:18;10.47;;;6.63;;
20458;SDS011;10388;52.314;7.938;2024-01-10T05:48:49;15.80;;;7.53;;
20458;SDS011;10388;52.314;7.938;2024-01-10T05:51:20;12.03;;;7.30;;
20458;SDS011;10388;52.314;7.938;2024-01-10T05:53:51;13.40;;;6.57;;
20458;SDS011;10388;52.314;7.938;2024-01-10T05:56:21;11.70;;;6.80;;
20458;SDS011;10388;52.314;7.938;2024-01-10T05:58:53;12.73;;;6.93;;
20458;SDS011;10388;52.314;7.938;2024-01-10T06:01:24;11.57;;;6.97;;
20458;SDS011;10388;52.314;7.938;2024-01-10T06:03:55;11.67;;;7.13;;
20458;SDS011;10388;52.314;7.938;2024-01-10T06:06:26;10.57;;;6.90;;
20458;SDS011;10388;52.314;7.938;2024-01-10T06:08:56;13.20;;;6.80;;
20458;SDS011;10388;52.314;7.938;2024-01-10T06:11:27;13.53;;;7.40;;
20458;SDS011;10388;52.314;7.938;2024-01-10T06:13:59;10.70;;;6.37;;
20458;SDS011;10388;52.314;7.938;2024-01-10T06:16:29;11.27;;;7.07;;
20458;SDS011;10388;52.314;7.938;2024-01-10T06:19:00;12.40;;;7.20;;
20458;SDS011;10388;52.314;7.938;2024-01-10T06:21:30;12.13;;;6.83;;
20458;SDS011;10388;52.314;7.938;2024-01-10T06:24:01;12.27;;;7.13;;
20458;SDS011;10388;52.314;7.938;2024-01-10T06:26:32;11.17;;;6.73;;
20458;SDS011;10388;52.314;7.938;2024-01-10T06:29:02;11.57;;;7.40;;
20458;SDS011;10388;52.314;7.938;2024-01-10T06:31:33;14.03;;;7.20;;
20458;SDS011;10388;52.314;7.938;2024-01-10T06:34:03;12.97;;;7.70;;
20458;SDS011;10388;52.314;7.938;2024-01-10T06:36:34;15.60;;;8.70;;
20458;SDS011;10388;52.314;7.938;2024-01-10T06:39:05;12.17;;;7.33;;
20458;SDS011;10388;52.314;7.938;2024-01-10T06:41:35;10.33;;;7.07;;
20458;SDS011;10388;52.314;7.938;2024-01-10T06:44:06;12.67;;;7.73;;
20458;SDS011;10388;52.314;7.938;2024-01-10T06:46:36;11.63;;;7.00;;
20458;SDS011;10388;52.314;7.938;2024-01-10T06:49:07;12.90;;;7.77;;
20458;SDS011;10388;52.314;7.938;2024-01-10T06:51:38;11.87;;;7.90;;
20458;SDS011;10388;52.314;7.938;2024-01-10T06:54:08;11.83;;;7.33;;
20458;SDS011;10388;52.314;7.938;2024-01-10T06:56:39;11.43;;;6.87;;
20458;SDS011;10388;52.314;7.938;2024-01-10T06:59:09;11.70;;;7.60;;
20458;SDS011;10388;52.314;7.938;2024-01-10T07:01:40;14.87;;;7.53;;
20458;SDS011;10388;52.314;7.938;2024-01-10T07:04:10;11.87;;;7.40;;
20458;SDS011;10388;52.314;7.938;2024-01-10T07:06:41;13.37;;;7.17;;
20458;SDS011;10388;52.314;7.938;2024-01-10T07:09:11;13.50;;;7.83;;
20458;SDS011;10388;52.314;7.938;2024-01-10T07:11:42;13.33;;;8.50;;
20458;SDS011;10388;52.314;7.938;2024-01-10T07:14:13;11.73;;;7.67;;
20458;SDS011;10388;52.314;7.938;2024-01-10T07:16:44;13.68;;;8.93;;
20458;SDS011;10388;52.314;7.938;2024-01-10T07:19:15;14.23;;;9.50;;
20458;SDS011;10388;52.314;7.938;2024-01-10T07:21:46;12.10;;;7.83;;
20458;SDS011;10388;52.314;7.938;2024-01-10T07:24:16;12.47;;;7.70;;
20458;SDS011;10388;52.314;7.938;2024-01-10T07:26:47;11.40;;;7.20;;
20458;SDS011;10388;52.314;7.938;2024-01-10T07:29:17;14.07;;;7.57;;
20458;SDS011;10388;52.314;7.938;2024-01-10T07:31:49;14.90;;;8.30;;
20458;SDS011;10388;52.314;7.938;2024-01-10T07:34:22;10.60;;;7.43;;
20458;SDS011;10388;52.314;7.938;2024-01-10T07:36:53;12.57;;;8.23;;
20458;SDS011;10388;52.314;7.938;2024-01-10T07:39:24;12.20;;;7.07;;
20458;SDS011;10388;52.314;7.938;2024-01-10T07:41:54;11.97;;;7.10;;
20458;SDS011;10388;52.314;7.938;2024-01-10T07:44:25;12.70;;;7.83;;
20458;SDS011;10388;52.314;7.938;2024-01-10T07:46:56;13.73;;;8.20;;
20458;SDS011;10388;52.314;7.938;2024-01-10T07:49:26;13.80;;;7.43;;
20458;SDS011;10388;52.314;7.938;2024-01-10T07:51:58;12.07;;;7.37;;
20458;SDS011;10388;52.314;7.938;2024-01-10T07:54:29;14.63;;;8.13;;
20458;SDS011;10388;52.314;7.938;2024-01-10T07:57:01;14.97;;;8.20;;
20458;SDS011;10388;52.314;7.938;2024-01-10T07:59:32;14.80;;;8.03;;
20458;SDS011;10388;52.314;7.938;2024-01-10T08:02:03;13.87;;;8.13;;
20458;SDS011;10388;52.314;7.938;2024-01-10T08:04:33;13.97;;;8.67;;
20458;SDS011;10388;52.314;7.938;2024-01-10T08:07:04;16.30;;;9.13;;
20458;SDS011;10388;52.314;7.938;2024-01-10T08:09:34;17.57;;;8.93;;
20458;SDS011;10388;52.314;7.938;2024-01-10T08:12:05;16.67;;;8.80;;
20458;SDS011;10388;52.314;7.938;2024-01-10T08:14:36;12.13;;;7.47;;
20458;SDS011;10388;52.314;7.938;2024-01-10T08:17:07;14.93;;;8.63;;
20458;SDS011;10388;52.314;7.938;2024-01-10T08:19:38;16.47;;;9.20;;
20458;SDS011;10388;52.314;7.938;2024-01-10T08:22:08;23.57;;;13.63;;
20458;SDS011;10388;52.314;7.938;2024-01-10T08:24:39;77.80;;;35.67;;
20458;SDS011;10388;52.314;7.938;2024-01-10T08:27:09;20.47;;;10.07;;
20458;SDS011;10388;52.314;7.938;2024-01-10T08:29:40;13.90;;;8.67;;
20458;SDS011;10388;52.314;7.938;2024-01-10T08:32:11;19.07;;;13.43;;
20458;SDS011;10388;52.314;7.938;2024-01-10T08:34:41;12.90;;;8.10;;
20458;SDS011;10388;52.314;7.938;2024-01-10T08:37:12;16.47;;;8.70;;
20458;SDS011;10388;52.314;7.938;2024-01-10T08:39:43;12.57;;;7.97;;
20458;SDS011;10388;52.314;7.938;2024-01-10T08:42:14;12.13;;;7.90;;
20458;SDS011;10388;52.314;7.938;2024-01-10T08:44:44;11.37;;;7.50;;
20458;SDS011;10388;52.314;7.938;2024-01-10T08:47:15;13.83;;;7.50;;
20458;SDS011;10388;52.314;7.938;2024-01-10T08:49:45;16.33;;;8.07;;
20458;SDS011;10388;52.314;7.938;2024-01-10T08:52:16;17.13;;;9.53;;
20458;SDS011;10388;52.314;7.938;2024-01-10T08:54:47;15.83;;;8.10;;
20458;SDS011;10388;52.314;7.938;2024-01-10T08:57:17;14.20;;;7.63;;
20458;SDS011;10388;52.314;7.938;2024-01-10T08:59:48;15.80;;;7.77;;
20458;SDS011;10388;52.314;7.938;2024-01-10T09:02:18;14.50;;;8.13;;
20458;SDS011;10388;52.314;7.938;2024-01-10T09:04:49;10.90;;;7.37;;
20458;SDS011;10388;52.314;7.938;2024-01-10T09:07:20;13.00;;;7.87;;
20458;SDS011;10388;52.314;7.938;2024-01-10T09:09:51;14.20;;;8.63;;
20458;SDS011;10388;52.314;7.938;2024-01-10T09:12:22;13.13;;;8.40;;
20458;SDS011;10388;52.314;7.938;2024-01-10T09:14:53;15.07;;;8.17;;
20458;SDS011;10388;52.314;7.938;2024-01-10T09:17:24;13.80;;;7.83;;
20458;SDS011;10388;52.314;7.938;2024-01-10T09:19:55;13.40;;;8.13;;
20458;SDS011;10388;52.314;7.938;2024-01-10T09:22:25;14.90;;;8.17;;
20458;SDS011;10388;52.314;7.938;2024-01-10T09:24:56;14.00;;;8.17;;
20458;SDS011;10388;52.314;7.938;2024-01-10T09:27:30;14.47;;;8.73;;
20458;SDS011;10388;52.314;7.938;2024-01-10T09:30:02;15.50;;;8.30;;
20458;SDS011;10388;52.314;7.938;2024-01-10T09:32:33;13.70;;;7.73;;
20458;SDS011;10388;52.314;7.938;2024-01-10T09:35:04;14.57;;;7.57;;
20458;SDS011;10388;52.314;7.938;2024-01-10T09:37:34;12.90;;;8.13;;
20458;SDS011;10388;52.314;7.938;2024-01-10T09:40:05;13.10;;;7.97;;
20458;SDS011;10388;52.314;7.938;2024-01-10T09:42:37;13.37;;;8.17;;
20458;SDS011;10388;52.314;7.938;2024-01-10T09:45:08;13.90;;;8.10;;
20458;SDS011;10388;52.314;7.938;2024-01-10T09:47:41;14.63;;;8.37;;
20458;SDS011;10388;52.314;7.938;2024-01-10T09:50:15;13.03;;;8.23;;
20458;SDS011;10388;52.314;7.938;2024-01-10T09:53:21;16.77;;;8.90;;
20458;SDS011;10388;52.314;7.938;2024-01-10T09:55:46;13.90;;;8.70;;
20458;SDS011;10388;52.314;7.938;2024-01-10T09:58:17;13.00;;;7.83;;
20458;SDS011;10388;52.314;7.938;2024-01-10T10:00:48;12.53;;;7.87;;
20458;SDS011;10388;52.314;7.938;2024-01-10T10:03:18;15.03;;;8.50;;
20458;SDS011;10388;52.314;7.938;2024-01-10T10:05:49;13.90;;;8.07;;
20458;SDS011;10388;52.314;7.938;2024-01-10T10:08:20;15.60;;;8.43;;
20458;SDS011;10388;52.314;7.938;2024-01-10T10:10:52;13.73;;;8.10;;
20458;SDS011;10388;52.314;7.938;2024-01-10T10:13:26;12.23;;;7.90;;
20458;SDS011;10388;52.314;7.938;2024-01-10T10:15:59;12.97;;;7.50;;
20458;SDS011;10388;52.314;7.938;2024-01-10T10:18:33;12.17;;;8.30;;
20458;SDS011;10388;52.314;7.938;2024-01-10T10:21:10;15.27;;;8.93;;
20458;SDS011;10388;52.314;7.938;2024-01-10T10:23:43;13.80;;;8.40;;
20458;SDS011;10388;52.314;7.938;2024-01-10T10:26:27;15.83;;;9.47;;
20458;SDS011;10388;52.314;7.938;2024-01-10T10:28:59;66.90;;;22.13;;
20458;SDS011;10388;52.314;7.938;2024-01-10T10:31:30;16.37;;;9.37;;
20458;SDS011;10388;52.314;7.938;2024-01-10T10:34:02;13.50;;;8.20;;
20458;SDS011;10388;52.314;7.938;2024-01-10T10:36:32;11.43;;;7.93;;
20458;SDS011;10388;52.314;7.938;2024-01-10T10:39:03;13.87;;;7.60;;
20458;SDS011;10388;52.314;7.938;2024-01-10T10:41:34;16.23;;;9.60;;
20458;SDS011;10388;52.314;7.938;2024-01-10T10:44:06;15.20;;;8.73;;
20458;SDS011;10388;52.314;7.938;2024-01-10T10:46:39;12.87;;;8.13;;
20458;SDS011;10388;52.314;7.938;2024-01-10T10:49:13;14.33;;;8.20;;
20458;SDS011;10388;52.314;7.938;2024-01-10T10:51:44;14.40;;;7.67;;
20458;SDS011;10388;52.314;7.938;2024-01-10T10:54:14;14.03;;;7.93;;
20458;SDS011;10388;52.314;7.938;2024-01-10T10:56:48;14.83;;;8.70;;
20458;SDS011;10388;52.314;7.938;2024-01-10T10:59:20;12.60;;;7.40;;
20458;SDS011;10388;52.314;7.938;2024-01-10T11:01:53;15.57;;;9.73;;
20458;SDS011;10388;52.314;7.938;2024-01-10T11:04:25;14.93;;;8.40;;
20458;SDS011;10388;52.314;7.938;2024-01-10T11:06:57;12.30;;;8.27;;
20458;SDS011;10388;52.314;7.938;2024-01-10T11:09:27;13.87;;;8.10;;
20458;SDS011;10388;52.314;7.938;2024-01-10T11:14:59;12.17;;;7.77;;
20458;SDS011;10388;52.314;7.938;2024-01-10T11:17:40;13.53;;;7.70;;
20458;SDS011;10388;52.314;7.938;2024-01-10T11:23:28;11.77;;;8.00;;
20458;SDS011;10388;52.314;7.938;2024-01-10T11:26:10;12.13;;;7.80;;
20458;SDS011;10388;52.314;7.938;2024-01-10T11:28:41;12.73;;;8.07;;
20458;SDS011;10388;52.314;7.938;2024-01-10T11:31:12;13.13;;;8.53;;
20458;SDS011;10388;52.314;7.938;2024-01-10T11:33:45;13.60;;;8.47;;
20458;SDS011;10388;52.314;7.938;2024-01-10T11:36:19;13.07;;;7.83;;
20458;SDS011;10388;52.314;7.938;2024-01-10T11:39:03;13.83;;;8.17;;
20458;SDS011;10388;52.314;7.938;2024-01-10T11:41:36;15.37;;;8.60;;
20458;SDS011;10388;52.314;7.938;2024-01-10T11:46:41;16.20;;;8.70;;
20458;SDS011;10388;52.314;7.938;2024-01-10T11:49:14;14.87;;;8.63;;
20458;SDS011;10388;52.314;7.938;2024-01-10T11:51:49;16.10;;;8.40;;
20458;SDS011;10388;52.314;7.938;2024-01-10T11:54:38;15.03;;;8.73;;
20458;SDS011;10388;52.314;7.938;2024-01-10T11:57:22;13.13;;;8.63;;
20458;SDS011;10388;52.314;7.938;2024-01-10T11:59:57;15.00;;;8.50;;
20458;SDS011;10388;52.314;7.938;2024-01-10T12:02:30;15.57;;;9.00;;
20458;SDS011;10388;52.314;7.938;2024-01-10T12:05:00;12.17;;;8.47;;
20458;SDS011;10388;52.314;7.938;2024-01-10T12:07:31;14.07;;;8.40;;
20458;SDS011;10388;52.314;7.938;2024-01-10T12:10:02;16.10;;;8.97;;
20458;SDS011;10388;52.314;7.938;2024-01-10T12:12:33;13.93;;;8.30;;
20458;SDS011;10388;52.314;7.938;2024-01-10T12:15:03;14.20;;;8.73;;
20458;SDS011;10388;52.314;7.938;2024-01-10T12:17:36;16.13;;;7.97;;
20458;SDS011;10388;52.314;7.938;2024-01-10T12:20:06;13.17;;;8.73;;
20458;SDS011;10388;52.314;7.938;2024-01-10T12:22:37;16.77;;;8.53;;
20458;SDS011;10388;52.314;7.938;2024-01-10T12:25:08;12.70;;;7.43;;
20458;SDS011;10388;52.314;7.938;2024-01-10T12:27:38;15.77;;;9.17;;
20458;SDS011;10388;52.314;7.938;2024-01-10T12:30:09;18.40;;;8.87;;
20458;SDS011;10388;52.314;7.938;2024-01-10T12:32:40;17.07;;;9.63;;
20458;SDS011;10388;52.314;7.938;2024-01-10T12:35:10;13.63;;;9.30;;
20458;SDS011;10388;52.314;7.938;2024-01-10T12:37:41;18.43;;;8.97;;
20458;SDS011;10388;52.314;7.938;2024-01-10T12:40:11;17.03;;;9.20;;
20458;SDS011;10388;52.314;7.938;2024-01-10T12:42:43;13.17;;;7.97;;
20458;SDS011;10388;52.314;7.938;2024-01-10T12:45:22;12.80;;;8.07;;
20458;SDS011;10388;52.314;7.938;2024-01-10T12:47:53;15.50;;;8.90;;
20458;SDS011;10388;52.314;7.938;2024-01-10T12:50:24;16.07;;;8.13;;
20458;SDS011;10388;52.314;7.938;2024-01-10T12:52:58;16.40;;;8.57;;
20458;SDS011;10388;52.314;7.938;2024-01-10T12:55:29;14.13;;;9.03;;
20458;SDS011;10388;52.314;7.938;2024-01-10T12:57:59;15.97;;;8.57;;
20458;SDS011;10388;52.314;7.938;2024-01-10T13:00:34;15.20;;;8.80;;
20458;SDS011;10388;52.314;7.938;2024-01-10T13:03:05;13.97;;;8.10;;
20458;SDS011;10388;52.314;7.938;2024-01-10T13:05:36;12.37;;;8.07;;
20458;SDS011;10388;52.314;7.938;2024-01-10T13:08:06;16.03;;;9.13;;
20458;SDS011;10388;52.314;7.938;2024-01-10T13:10:38;13.27;;;8.03;;
20458;SDS011;10388;52.314;7.938;2024-01-10T13:13:08;14.97;;;8.90;;
20458;SDS011;10388;52.314;7.938;2024-01-10T13:15:41;14.33;;;8.77;;
20458;SDS011;10388;52.314;7.938;2024-01-10T13:18:12;15.53;;;8.20;;
20458;SDS011;10388;52.314;7.938;2024-01-10T13:20:45;12.97;;;7.77;;
20458;SDS011;10388;52.314;7.938;2024-01-10T13:23:17;14.10;;;8.50;;
20458;SDS011;10388;52.314;7.938;2024-01-10T13:25:49;13.53;;;8.70;;
20458;SDS011;10388;52.314;7.938;2024-01-10T13:28:20;13.80;;;8.40;;
20458;SDS011;10388;52.314;7.938;2024-01-10T13:30:50;16.60;;;10.63;;
20458;SDS011;10388;52.314;7.938;2024-01-10T13:33:22;14.90;;;8.83;;
20458;SDS011;10388;52.314;7.938;2024-01-10T13:35:52;16.00;;;8.40;;
20458;SDS011;10388;52.314;7.938;2024-01-10T13:38:23;14.53;;;8.90;;
20458;SDS011;10388;52.314;7.938;2024-01-10T13:40:56;13.30;;;8.87;;
20458;SDS011;10388;52.314;7.938;2024-01-10T13:43:27;12.80;;;8.23;;
20458;SDS011;10388;52.314;7.938;2024-01-10T13:45:58;16.17;;;8.50;;
20458;SDS011;10388;52.314;7.938;2024-01-10T13:48:29;13.73;;;8.80;;
20458;SDS011;10388;52.314;7.938;2024-01-10T13:50:59;15.40;;;7.93;;
20458;SDS011;10388;52.314;7.938;2024-01-10T13:53:30;13.47;;;8.40;;
20458;SDS011;10388;52.314;7.938;2024-01-10T13:56:00;16.77;;;8.77;;
20458;SDS011;10388;52.314;7.938;2024-01-10T13:58:31;15.10;;;8.57;;
20458;SDS011;10388;52.314;7.938;2024-01-10T14:01:01;14.53;;;8.07;;
20458;SDS011;10388;52.314;7.938;2024-01-10T14:03:32;15.00;;;9.40;;
20458;SDS011;10388;52.314;7.938;2024-01-10T14:06:02;14.50;;;8.27;;
20458;SDS011;10388;52.314;7.938;2024-01-10T14:08:33;15.37;;;8.90;;
20458;SDS011;10388;52.314;7.938;2024-01-10T14:11:07;17.57;;;8.23;;
20458;SDS011;10388;52.314;7.938;2024-01-10T14:13:38;11.83;;;7.53;;
20458;SDS011;10388;52.314;7.938;2024-01-10T14:16:08;12.20;;;7.97;;
20458;SDS011;10388;52.314;7.938;2024-01-10T14:18:40;14.57;;;8.97;;
20458;SDS011;10388;52.314;7.938;2024-01-10T14:21:11;15.00;;;8.37;;
20458;SDS011;10388;52.314;7.938;2024-01-10T14:23:42;14.03;;;8.73;;
20458;SDS011;10388;52.314;7.938;2024-01-10T14:26:14;14.83;;;8.50;;
20458;SDS011;10388;52.314;7.938;2024-01-10T14:28:45;13.77;;;8.10;;
20458;SDS011;10388;52.314;7.938;2024-01-10T14:31:15;15.10;;;8.37;;
20458;SDS011;10388;52.314;7.938;2024-01-10T14:33:46;16.17;;;8.73;;
20458;SDS011;10388;52.314;7.938;2024-01-10T14:36:17;13.87;;;9.00;;
20458;SDS011;10388;52.314;7.938;2024-01-10T14:38:47;12.17;;;7.60;;
20458;SDS011;10388;52.314;7.938;2024-01-10T14:41:18;13.80;;;7.40;;
20458;SDS011;10388;52.314;7.938;2024-01-10T14:43:48;12.57;;;8.17;;
20458;SDS011;10388;52.314;7.938;2024-01-10T14:46:19;13.97;;;8.17;;
20458;SDS011;10388;52.314;7.938;2024-01-10T14:48:50;14.00;;;8.53;;
20458;SDS011;10388;52.314;7.938;2024-01-10T14:51:21;13.63;;;8.73;;
20458;SDS011;10388;52.314;7.938;2024-01-10T14:53:52;11.93;;;7.90;;
20458;SDS011;10388;52.314;7.938;2024-01-10T14:56:22;13.43;;;7.33;;
20458;SDS011;10388;52.314;7.938;2024-01-10T14:58:53;23.53;;;12.73;;
20458;SDS011;10388;52.314;7.938;2024-01-10T15:01:23;12.83;;;8.57;;
20458;SDS011;10388;52.314;7.938;2024-01-10T15:03:54;14.70;;;8.40;;
20458;SDS011;10388;52.314;7.938;2024-01-10T15:06:24;11.93;;;7.73;;
20458;SDS011;10388;52.314;7.938;2024-01-10T15:08:55;14.77;;;8.50;;
20458;SDS011;10388;52.314;7.938;2024-01-10T15:11:26;13.87;;;7.63;;
20458;SDS011;10388;52.314;7.938;2024-01-10T15:13:57;12.83;;;8.03;;
20458;SDS011;10388;52.314;7.938;2024-01-10T15:16:27;12.13;;;8.07;;
20458;SDS011;10388;52.314;7.938;2024-01-10T15:18:58;12.37;;;8.33;;
20458;SDS011;10388;52.314;7.938;2024-01-10T15:21:28;13.63;;;8.23;;
20458;SDS011;10388;52.314;7.938;2024-01-10T15:23:59;13.10;;;7.87;;
20458;SDS011;10388;52.314;7.938;2024-01-10T15:26:29;14.37;;;8.77;;
20458;SDS011;10388;52.314;7.938;2024-01-10T15:29:00;16.13;;;8.33;;
20458;SDS011;10388;52.314;7.938;2024-01-10T15:31:30;14.03;;;7.90;;
20458;SDS011;10388;52.314;7.938;2024-01-10T15:34:02;12.37;;;8.17;;
20458;SDS011;10388;52.314;7.938;2024-01-10T15:36:33;13.10;;;8.30;;
20458;SDS011;10388;52.314;7.938;2024-01-10T15:39:03;14.10;;;8.73;;
20458;SDS011;10388;52.314;7.938;2024-01-10T15:41:34;16.33;;;9.17;;
20458;SDS011;10388;52.314;7.938;2024-01-10T15:44:05;17.77;;;9.37;;
20458;SDS011;10388;52.314;7.938;2024-01-10T15:46:36;14.30;;;8.80;;
20458;SDS011;10388;52.314;7.938;2024-01-10T15:49:07;13.87;;;7.90;;
20458;SDS011;10388;52.314;7.938;2024-01-10T15:51:38;17.03;;;9.70;;
20458;SDS011;10388;52.314;7.938;2024-01-10T15:54:09;15.40;;;9.37;;